createdAt,value
2022-11-27T00:02:07.869Z,21.73
2022-11-27T00:07:09.724Z,28.63
2022-11-27T00:12:12.928Z,22.40
2022-11-27T00:17:14.784Z,25.10
2022-11-27T00:22:16.621Z,21.00
2022-11-27T00:27:19.786Z,27.60
2022-11-27T00:32:21.575Z,25.00
2022-11-27T00:37:23.326Z,20.80
2022-11-27T00:42:26.606Z,25.13
2022-11-27T00:47:28.412Z,24.50
2022-11-27T00:52:30.190Z,25.87
2022-11-27T00:57:33.410Z,24.13
2022-11-27T01:02:35.231Z,24.20
2022-11-27T01:07:37.172Z,25.80
2022-11-27T01:12:40.338Z,25.60
2022-11-27T01:17:42.133Z,25.33
2022-11-27T01:22:43.881Z,22.57
2022-11-27T01:27:47.221Z,30.90
2022-11-27T01:32:49.042Z,30.53
2022-11-27T01:37:50.872Z,27.43
2022-11-27T01:42:54.395Z,26.23
2022-11-27T01:47:57.722Z,19.53
2022-11-27T01:53:01.312Z,27.20
2022-11-27T01:58:08.273Z,25.30
2022-11-27T02:03:10.292Z,21.67
2022-11-27T02:08:12.995Z,20.87
2022-11-27T02:13:18.895Z,26.87
2022-11-27T02:18:23.306Z,39.13
2022-11-27T02:23:58.262Z,31.97
2022-11-27T02:29:03.570Z,26.77
2022-11-27T02:34:16.011Z,24.90
2022-11-27T02:39:19.494Z,31.57
2022-11-27T02:44:24.392Z,19.87
2022-11-27T02:49:26.262Z,24.47
2022-11-27T02:54:28.762Z,20.93
2022-11-27T02:59:32.083Z,20.60
2022-11-27T03:04:36.648Z,21.53
2022-11-27T03:09:39.651Z,19.50
2022-11-27T03:14:42.940Z,27.87
2022-11-27T03:19:48.655Z,24.43
2022-11-27T03:24:50.579Z,28.30
2022-11-27T03:29:54.776Z,25.90
2022-11-27T03:34:56.547Z,32.57
2022-11-27T03:39:58.370Z,15.97
2022-11-27T03:45:05.817Z,9.67
2022-11-27T03:50:15.779Z,8.73
2022-11-27T03:55:21.019Z,10.33
2022-11-27T04:00:24.169Z,14.50
2022-11-27T04:05:25.945Z,13.67
2022-11-27T04:10:27.769Z,16.33
2022-11-27T04:15:30.965Z,23.40
2022-11-27T04:20:32.733Z,25.93
2022-11-27T04:25:34.709Z,16.93
2022-11-27T04:30:37.882Z,11.00
2022-11-27T04:35:39.725Z,10.00
2022-11-27T04:40:41.506Z,14.90
2022-11-27T04:45:44.557Z,15.10
2022-11-27T04:50:46.403Z,16.37
2022-11-27T04:55:48.250Z,23.20
2022-11-27T05:00:51.528Z,19.20
2022-11-27T05:05:56.729Z,25.17
2022-11-27T05:11:00.466Z,21.27
2022-11-27T05:16:04.001Z,21.73
2022-11-27T05:21:06.966Z,17.57
2022-11-27T05:26:08.798Z,22.37
2022-11-27T05:31:12.096Z,19.10
2022-11-27T05:36:13.854Z,22.50
2022-11-27T05:41:15.698Z,19.40
2022-11-27T05:46:19.821Z,17.03
2022-11-27T05:51:21.648Z,20.03
2022-11-27T05:56:24.055Z,16.27
2022-11-27T06:01:27.227Z,20.87
2022-11-27T06:06:29.005Z,19.23
2022-11-27T06:11:30.808Z,14.70
2022-11-27T06:16:34.103Z,12.07
2022-11-27T06:21:36.014Z,17.47
2022-11-27T06:26:37.843Z,14.50
2022-11-27T06:31:41.102Z,18.07
2022-11-27T06:36:42.944Z,19.40
2022-11-27T06:41:44.766Z,22.00
2022-11-27T06:46:47.990Z,24.10
2022-11-27T06:51:50.646Z,24.37
2022-11-27T06:56:52.541Z,22.70
2022-11-27T07:01:56.214Z,21.33
2022-11-27T07:06:58.863Z,23.10
2022-11-27T07:12:00.655Z,24.50
2022-11-27T07:17:03.821Z,16.30
2022-11-27T07:22:05.621Z,17.63
2022-11-27T07:27:08.603Z,16.20
2022-11-27T07:32:11.802Z,18.40
2022-11-27T07:37:13.586Z,22.93
2022-11-27T07:42:37.894Z,16.30
2022-11-27T07:47:38.569Z,25.07
2022-11-27T07:52:42.233Z,18.07
2022-11-27T07:57:44.445Z,21.67
2022-11-27T08:02:47.578Z,20.20
2022-11-27T08:07:49.401Z,17.27
2022-11-27T08:12:51.226Z,21.93
2022-11-27T08:17:54.337Z,20.70
2022-11-27T08:23:01.198Z,24.00
2022-11-27T08:28:04.917Z,18.53
2022-11-27T08:33:08.052Z,19.73
2022-11-27T08:38:09.938Z,18.27
2022-11-27T08:43:11.727Z,17.00
2022-11-27T08:48:14.777Z,15.87
2022-11-27T08:53:16.654Z,13.47
2022-11-27T08:58:18.536Z,12.30
2022-11-27T09:03:21.675Z,14.00
2022-11-27T09:08:23.417Z,15.90
2022-11-27T09:13:25.256Z,14.80
2022-11-27T09:18:28.456Z,13.60
2022-11-27T09:23:30.233Z,18.70
2022-11-27T09:28:32.068Z,17.83
2022-11-27T09:33:36.078Z,18.60
2022-11-27T09:38:38.236Z,17.50
2022-11-27T09:43:45.181Z,16.30
2022-11-27T09:48:49.268Z,21.03
2022-11-27T09:53:52.706Z,17.53
2022-11-27T09:58:56.586Z,16.70
2022-11-27T10:04:00.852Z,16.87
2022-11-27T10:09:09.115Z,11.23
2022-11-27T10:14:22.196Z,15.10
2022-11-27T10:19:31.082Z,16.40
2022-11-27T10:24:37.483Z,16.90
2022-11-27T10:29:41.518Z,16.80
2022-11-27T10:34:48.562Z,16.43
2022-11-27T10:39:52.732Z,15.70
2022-11-27T10:44:57.907Z,14.90
2022-11-27T10:50:16.500Z,14.00
2022-11-27T10:55:21.626Z,17.00
2022-11-27T11:00:24.000Z,15.97
2022-11-27T11:10:53.724Z,17.23
2022-11-27T11:15:57.950Z,17.53
2022-11-27T11:21:02.302Z,19.97
2022-11-27T11:26:07.314Z,16.13
2022-11-27T11:31:09.856Z,12.80
2022-11-27T11:36:13.236Z,14.53
2022-11-27T11:41:17.957Z,14.13
2022-11-27T11:46:22.752Z,17.73
2022-11-27T11:51:34.996Z,15.63
2022-11-27T11:56:38.616Z,20.23
2022-11-27T12:01:54.302Z,26.17
2022-11-27T12:07:00.257Z,16.00
2022-11-27T12:12:04.925Z,21.53
2022-11-27T12:17:17.122Z,29.67
2022-11-27T12:22:26.856Z,48.47
2022-11-27T12:27:46.100Z,22.73
2022-11-27T12:33:26.964Z,17.90
2022-11-27T12:38:38.673Z,18.77
2022-11-27T12:43:42.045Z,18.93
2022-11-27T12:48:46.512Z,20.90
2022-11-27T12:53:52.135Z,16.23
2022-11-27T12:58:56.360Z,15.43
2022-11-27T13:04:03.681Z,13.03
2022-11-27T13:09:08.098Z,16.20
2022-11-27T13:14:11.737Z,20.63
2022-11-27T13:19:16.654Z,11.97
2022-11-27T13:24:19.831Z,14.97
2022-11-27T13:29:29.755Z,17.70
2022-11-27T13:34:31.811Z,13.53
2022-11-27T13:39:36.869Z,16.00
2022-11-27T13:44:41.655Z,16.10
2022-11-27T13:49:48.352Z,17.63
2022-11-27T13:54:55.416Z,16.93
2022-11-27T13:59:58.616Z,15.03
2022-11-27T14:05:00.400Z,23.50
2022-11-27T14:10:09.142Z,21.50
2022-11-27T14:15:20.508Z,26.30
2022-11-27T14:20:28.019Z,30.23
2022-11-27T14:25:31.739Z,31.80
2022-11-27T14:30:35.022Z,80.53
2022-11-27T14:35:36.792Z,75.07
2022-11-27T14:40:39.958Z,26.43
2022-11-27T14:45:43.944Z,28.20
2022-11-27T14:50:45.804Z,24.03
2022-11-27T14:55:49.628Z,29.93
2022-11-27T15:00:52.465Z,30.40
2022-11-27T15:05:56.230Z,31.83
2022-11-27T15:10:59.512Z,31.37
2022-11-27T15:16:03.480Z,40.43
2022-11-27T15:21:09.816Z,33.20
2022-11-27T15:26:17.960Z,35.03
2022-11-27T15:31:30.810Z,28.67
2022-11-27T15:36:39.700Z,25.53
2022-11-27T15:41:49.888Z,20.80
2022-11-27T15:46:52.305Z,26.17
2022-11-27T15:51:54.874Z,26.43
2022-11-27T15:56:58.070Z,22.97
2022-11-27T16:02:00.020Z,18.80
2022-11-27T16:07:01.931Z,17.97
2022-11-27T16:12:05.722Z,23.57
2022-11-27T16:17:07.546Z,22.23
2022-11-27T16:22:09.327Z,22.23
2022-11-27T16:27:12.458Z,23.93
2022-11-27T16:32:14.256Z,24.70
2022-11-27T16:37:18.549Z,29.77
2022-11-27T16:42:21.960Z,26.50
2022-11-27T16:47:23.873Z,17.10
2022-11-27T16:52:25.634Z,25.73
2022-11-27T16:57:28.868Z,18.27
2022-11-27T17:02:31.040Z,20.70
2022-11-27T17:07:33.023Z,19.30
2022-11-27T17:12:36.259Z,29.70
2022-11-27T17:17:40.214Z,24.63
2022-11-27T17:29:43.116Z,19.07
2022-11-27T17:34:46.507Z,23.47
2022-11-27T17:39:48.469Z,28.13
2022-11-27T17:44:50.634Z,21.50
2022-11-27T17:49:53.787Z,24.73
2022-11-27T17:54:56.878Z,26.07
2022-11-27T17:59:58.603Z,19.60
2022-11-27T18:05:02.043Z,25.43
2022-11-27T18:10:05.254Z,28.73
2022-11-27T18:15:09.488Z,23.33
2022-11-27T18:20:13.190Z,18.37
2022-11-27T18:25:15.000Z,30.00
2022-11-27T18:30:16.994Z,25.70
2022-11-27T18:35:23.242Z,19.63
2022-11-27T18:40:25.007Z,18.10
2022-11-27T18:45:33.320Z,18.03
2022-11-27T18:50:39.578Z,23.47
2022-11-27T18:55:41.630Z,21.40
2022-11-27T19:00:44.648Z,20.37
2022-11-27T19:05:48.773Z,19.23
2022-11-27T19:10:50.736Z,20.70
2022-11-27T19:15:52.600Z,27.60
2022-11-27T19:20:55.918Z,19.40
2022-11-27T19:26:04.325Z,16.90
2022-11-27T19:31:07.303Z,18.60
2022-11-27T19:36:11.443Z,21.23
2022-11-27T19:41:14.008Z,17.23
2022-11-27T19:46:16.250Z,17.37
2022-11-27T19:51:19.422Z,16.07
2022-11-27T19:56:21.507Z,17.40
2022-11-27T20:01:24.399Z,16.90
2022-11-27T20:06:29.274Z,21.20
2022-11-27T20:11:34.814Z,13.17
2022-11-27T20:16:38.717Z,23.20
2022-11-27T20:21:42.297Z,17.53
2022-11-27T20:26:44.087Z,15.43
2022-11-27T20:31:45.959Z,17.17
2022-11-27T20:36:49.075Z,13.40
2022-11-27T20:41:51.300Z,13.53
2022-11-27T20:46:52.994Z,22.40
2022-11-27T20:51:57.735Z,20.57
2022-11-27T20:56:59.523Z,14.57
2022-11-27T21:02:02.733Z,18.50
2022-11-27T21:07:06.330Z,16.80
2022-11-27T21:12:08.131Z,18.60
2022-11-27T21:17:09.988Z,21.00
2022-11-27T21:22:13.172Z,16.07
2022-11-27T21:27:15.138Z,14.80
2022-11-27T21:32:22.597Z,23.30
2022-11-27T21:37:26.115Z,15.53
2022-11-27T21:42:29.292Z,20.93
2022-11-27T21:47:31.125Z,26.80
2022-11-27T21:52:35.546Z,19.73
2022-11-27T21:57:37.303Z,25.17
2022-11-27T22:02:39.222Z,20.30
2022-11-27T22:07:42.730Z,24.50
2022-11-27T22:12:44.468Z,19.40
2022-11-27T22:17:46.294Z,20.97
2022-11-27T22:22:49.597Z,20.20
2022-11-27T22:27:51.398Z,27.00
2022-11-27T22:32:53.248Z,25.30
2022-11-27T22:37:56.496Z,24.10
2022-11-27T22:42:58.410Z,25.50
2022-11-27T22:48:00.180Z,21.17
2022-11-27T22:53:03.313Z,18.40
2022-11-27T22:58:05.134Z,18.87
2022-11-27T23:03:07.685Z,18.97
2022-11-27T23:08:10.956Z,22.73
2022-11-27T23:13:13.522Z,19.53
2022-11-27T23:18:15.363Z,20.80
2022-11-27T23:23:18.430Z,18.67
2022-11-27T23:28:20.195Z,17.63
2022-11-27T23:33:21.939Z,19.97
2022-11-27T23:38:25.060Z,22.80
2022-11-27T23:43:26.778Z,20.40
2022-11-27T23:48:28.571Z,21.83
2022-11-27T23:53:31.647Z,18.87
2022-11-27T23:58:33.479Z,20.00
